Time;durP1;ratioP1;P1;durP2;ratioP2;P2;SDS_P1;SDS_P2;PMS_P1;PMS_P2;Temp;Humidity;BMP_temperature;BMP_pressure;BME280_temperature;BME280_humidity;BME280_pressure;Samples;Min_cycle;Max_cycle;Signal;HPM_P1;HPM_P2
2022/05/05 00:00:57;;;;;;;;;;;16.70;60.90;;;;;;2036607;28;19904;-69
2022/05/05 00:01:56;;;;;;;;;;;16.70;60.90;;;;;;2036660;28;20359;-69
2022/05/05 00:02:54;;;;;;;;;;;16.70;60.90;;;;;;2036711;28;19939;-68
2022/05/05 00:03:52;;;;;;;;;;;16.70;60.90;;;;;;2036644;28;19954;-68
2022/05/05 00:04:51;;;;;;;;;;;16.70;60.90;;;;;;2036589;28;19927;-70
2022/05/05 00:05:49;;;;;;;;;;;16.70;60.90;;;;;;2036185;28;20252;-68
2022/05/05 00:06:48;;;;;;;;;;;16.70;60.90;;;;;;2036526;28;20061;-68
2022/05/05 00:07:47;;;;;;;;;;;16.70;60.90;;;;;;2036438;28;20274;-68
2022/05/05 00:08:45;;;;;;;;;;;16.60;60.90;;;;;;2036588;28;19911;-67
2022/05/05 00:09:44;;;;;;;;;;;16.70;60.90;;;;;;2036530;28;20256;-68
2022/05/05 00:14:33;;;;;;;;;;;16.70;61.00;;;;;;2036637;28;19935;-68
2022/05/05 00:15:32;;;;;;;;;;;16.60;60.90;;;;;;2037182;28;19904;-69
2022/05/05 00:16:31;;;;;;;;;;;16.70;60.90;;;;;;2037895;28;19919;-68
2022/05/05 00:17:32;;;;;;;;;;;16.60;60.80;;;;;;2037838;28;20415;-69
2022/05/05 00:18:30;;;;;;;;;;;16.60;60.90;;;;;;2037979;28;19904;-68
2022/05/05 00:19:30;;;;;;;;;;;16.60;60.90;;;;;;2038075;28;20106;-67
2022/05/05 00:20:28;;;;;;;;;;;16.70;61.00;;;;;;2038172;28;19951;-67
2022/05/05 00:21:27;;;;;;;;;;;16.60;60.90;;;;;;2038138;28;19904;-68
2022/05/05 00:22:25;;;;;;;;;;;16.60;60.90;;;;;;2038105;28;20331;-69
2022/05/05 00:23:23;;;;;;;;;;;16.60;60.90;;;;;;2038172;28;19904;-69
2022/05/05 00:24:22;;;;;;;;;;;16.60;60.90;;;;;;2038134;28;19904;-68
2022/05/05 00:25:21;;;;;;;;;;;16.70;60.90;;;;;;2038280;28;19999;-68
2022/05/05 00:26:19;;;;;;;;;;;16.60;61.20;;;;;;2037998;28;19912;-68
2022/05/05 00:27:18;;;;;;;;;;;16.70;60.80;;;;;;2038069;28;20359;-68
2022/05/05 00:28:17;;;;;;;;;;;16.70;60.90;;;;;;2037981;28;19904;-69
2022/05/05 00:29:15;;;;;;;;;;;16.60;60.90;;;;;;2045205;28;19911;-69
2022/05/05 00:30:14;;;;;;;;;;;16.60;60.80;;;;;;2045547;28;19994;-68
2022/05/05 00:31:12;;;;;;;;;;;16.60;60.90;;;;;;2038617;28;19983;-68
2022/05/05 00:32:11;;;;;;;;;;;16.60;60.90;;;;;;2045412;28;20356;-68
2022/05/05 00:33:10;;;;;;;;;;;16.60;60.90;;;;;;2045565;28;19903;-68
2022/05/05 00:34:08;;;;;;;;;;;16.60;60.90;;;;;;2038459;28;19946;-68
2022/05/05 00:35:07;;;;;;;;;;;16.60;60.90;;;;;;2037905;28;19904;-68
2022/05/05 00:36:05;;;;;;;;;;;16.60;60.80;;;;;;2037805;28;20485;-68
2022/05/05 00:37:04;;;;;;;;;;;16.60;60.90;;;;;;2037808;28;19952;-68
2022/05/05 00:38:03;;;;;;;;;;;16.60;60.90;;;;;;2037868;28;19904;-68
2022/05/05 00:39:02;;;;;;;;;;;16.60;60.90;;;;;;2037880;28;19904;-68
2022/05/05 00:40:00;;;;;;;;;;;16.60;60.90;;;;;;2037651;28;20309;-69
2022/05/05 00:40:59;;;;;;;;;;;16.60;60.90;;;;;;2037694;28;19911;-68
2022/05/05 00:41:58;;;;;;;;;;;16.60;61.00;;;;;;2037725;28;19907;-68
2022/05/05 00:43:00;;;;;;;;;;;16.60;60.90;;;;;;2037751;28;19923;-69
2022/05/05 00:43:58;;;;;;;;;;;16.60;61.00;;;;;;2037903;28;19908;-68
2022/05/05 00:44:57;;;;;;;;;;;16.60;60.90;;;;;;2037928;28;19904;-68
2022/05/05 00:45:55;;;;;;;;;;;16.60;61.00;;;;;;2037834;28;19910;-69
2022/05/05 00:46:55;;;;;;;;;;;16.60;61.10;;;;;;2037811;28;19935;-68
2022/05/05 00:48:03;;;;;;;;;;;16.60;61.00;;;;;;2037880;28;19914;-68
2022/05/05 00:49:03;;;;;;;;;;;16.60;61.00;;;;;;2037963;28;19912;-67
2022/05/05 00:50:03;;;;;;;;;;;16.60;61.00;;;;;;2037831;28;19998;-68
2022/05/05 00:51:01;;;;;;;;;;;16.60;61.20;;;;;;2037636;28;20052;-69
2022/05/05 00:52:00;;;;;;;;;;;16.60;61.00;;;;;;2037820;28;19908;-70
2022/05/05 00:52:58;;;;;;;;;;;16.60;61.10;;;;;;2037678;28;20279;-70
2022/05/05 00:53:57;;;;;;;;;;;16.60;61.10;;;;;;2037579;28;19951;-68
2022/05/05 00:54:56;;;;;;;;;;;16.60;61.10;;;;;;2037714;28;19998;-67
2022/05/05 00:56:02;;;;;;;;;;;16.60;61.10;;;;;;2037671;28;20374;-67
2022/05/05 00:57:01;;;;;;;;;;;16.60;61.20;;;;;;2037818;28;19910;-69
2022/05/05 00:58:01;;;;;;;;;;;16.60;61.20;;;;;;2037683;28;19911;-68
2022/05/05 00:59:00;;;;;;;;;;;16.60;61.20;;;;;;2037675;28;19903;-69
2022/05/05 00:59:59;;;;;;;;;;;16.60;61.20;;;;;;2037603;28;19904;-69
2022/05/05 01:01:03;;;;;;;;;;;16.60;61.10;;;;;;2037589;28;20245;-68
2022/05/05 01:02:02;;;;;;;;;;;16.60;61.20;;;;;;2037710;28;19978;-68
2022/05/05 01:03:01;;;;;;;;;;;16.60;61.20;;;;;;2037637;28;20013;-68
2022/05/05 01:04:00;;;;;;;;;;;16.60;61.20;;;;;;2037616;28;19904;-69
2022/05/05 01:04:58;;;;;;;;;;;16.60;61.30;;;;;;2037755;28;19907;-68
2022/05/05 01:05:57;;;;;;;;;;;16.50;61.20;;;;;;2037514;28;20004;-69
2022/05/05 01:06:55;;;;;;;;;;;16.60;61.30;;;;;;2037526;28;19911;-68
2022/05/05 01:07:55;;;;;;;;;;;16.60;61.30;;;;;;2037414;28;20359;-69
2022/05/05 01:08:55;;;;;;;;;;;16.50;61.30;;;;;;2037552;28;19920;-69
2022/05/05 01:09:53;;;;;;;;;;;16.50;61.20;;;;;;2045108;28;20010;-69
2022/05/05 01:10:53;;;;;;;;;;;16.50;61.20;;;;;;2045304;28;19945;-69
2022/05/05 01:11:51;;;;;;;;;;;16.60;61.40;;;;;;2037973;28;20343;-69
2022/05/05 01:12:51;;;;;;;;;;;16.50;61.20;;;;;;2037649;28;19926;-68
2022/05/05 01:13:49;;;;;;;;;;;16.60;61.40;;;;;;2037585;28;19904;-68
2022/05/05 01:14:49;;;;;;;;;;;16.50;61.20;;;;;;2037215;28;19907;-68
2022/05/05 01:15:49;;;;;;;;;;;16.50;61.20;;;;;;2037570;28;19919;-68
2022/05/05 01:16:47;;;;;;;;;;;16.50;61.20;;;;;;2037588;28;20252;-68
2022/05/05 01:17:46;;;;;;;;;;;16.50;61.20;;;;;;2037345;28;19911;-68
2022/05/05 01:18:44;;;;;;;;;;;16.50;61.30;;;;;;2037567;28;19910;-68
2022/05/05 01:19:43;;;;;;;;;;;16.50;61.30;;;;;;2037674;28;20017;-68
2022/05/05 01:20:45;;;;;;;;;;;16.50;61.30;;;;;;2037577;28;20002;-69
2022/05/05 01:21:49;;;;;;;;;;;16.50;61.30;;;;;;2037652;28;19908;-68
2022/05/05 01:22:51;;;;;;;;;;;16.50;61.40;;;;;;2037439;28;19947;-68
2022/05/05 01:23:50;;;;;;;;;;;16.50;61.60;;;;;;2037648;28;19998;-68
2022/05/05 01:28:44;;;;;;;;;;;16.50;61.60;;;;;;2037613;28;20345;-68
2022/05/05 01:29:43;;;;;;;;;;;16.50;61.70;;;;;;2037234;28;19904;-68
2022/05/05 01:30:43;;;;;;;;;;;16.50;61.70;;;;;;2037321;28;19904;-69
2022/05/05 01:31:44;;;;;;;;;;;16.50;61.80;;;;;;2037378;28;19910;-68
2022/05/05 01:32:42;;;;;;;;;;;16.50;61.70;;;;;;2037461;28;19974;-68
2022/05/05 01:33:40;;;;;;;;;;;16.50;61.70;;;;;;2037349;28;20327;-68
2022/05/05 01:34:40;;;;;;;;;;;16.50;61.70;;;;;;2037602;28;19965;-69
2022/05/05 01:35:40;;;;;;;;;;;16.50;61.80;;;;;;2037366;28;20252;-68
2022/05/05 01:36:38;;;;;;;;;;;16.50;61.80;;;;;;2045029;28;20359;-68
2022/05/05 01:37:37;;;;;;;;;;;16.50;61.80;;;;;;2044958;28;20276;-69
2022/05/05 01:38:40;;;;;;;;;;;16.50;61.80;;;;;;2037744;28;19904;-68
2022/05/05 01:39:39;;;;;;;;;;;16.50;61.80;;;;;;2037555;28;20336;-69
2022/05/05 01:40:39;;;;;;;;;;;16.50;62.00;;;;;;2036798;28;19972;-69
2022/05/05 01:41:38;;;;;;;;;;;16.50;62.00;;;;;;2036726;28;19943;-68
2022/05/05 01:42:38;;;;;;;;;;;16.50;61.90;;;;;;2037356;28;19905;-69
2022/05/05 01:43:38;;;;;;;;;;;16.50;62.10;;;;;;2037590;28;19949;-68
2022/05/05 01:44:36;;;;;;;;;;;16.50;62.10;;;;;;2037389;28;19904;-70
2022/05/05 01:45:35;;;;;;;;;;;16.50;62.10;;;;;;2037340;28;20007;-69
2022/05/05 01:46:33;;;;;;;;;;;16.50;62.10;;;;;;2037396;28;19998;-69
2022/05/05 01:47:32;;;;;;;;;;;16.50;62.20;;;;;;2037440;28;19904;-69
2022/05/05 01:48:31;;;;;;;;;;;16.50;62.40;;;;;;2037668;28;20014;-68
2022/05/05 01:49:29;;;;;;;;;;;16.50;62.40;;;;;;2037484;28;19904;-69
2022/05/05 01:50:30;;;;;;;;;;;16.50;62.40;;;;;;2037268;28;19911;-68
2022/05/05 01:51:29;;;;;;;;;;;16.50;62.50;;;;;;2037275;28;19904;-68
2022/05/05 01:52:27;;;;;;;;;;;16.50;62.60;;;;;;2037405;28;19957;-70
2022/05/05 01:53:26;;;;;;;;;;;16.50;62.60;;;;;;2036729;28;19904;-69
2022/05/05 01:54:24;;;;;;;;;;;16.40;62.60;;;;;;2036661;28;19965;-68
2022/05/05 01:55:23;;;;;;;;;;;16.40;62.70;;;;;;2037264;28;20256;-68
2022/05/05 01:56:21;;;;;;;;;;;16.50;62.80;;;;;;2037144;28;19937;-68
2022/05/05 01:57:20;;;;;;;;;;;16.40;62.80;;;;;;2037433;28;19904;-68
2022/05/05 01:58:19;;;;;;;;;;;16.40;62.90;;;;;;2044753;28;19907;-68
2022/05/05 01:59:18;;;;;;;;;;;16.40;62.80;;;;;;2044784;28;19903;-68
2022/05/05 02:00:17;;;;;;;;;;;16.40;63.60;;;;;;2037666;28;19904;-69
2022/05/05 02:01:15;;;;;;;;;;;16.50;63.00;;;;;;2037317;28;19943;-67
2022/05/05 02:02:14;;;;;;;;;;;16.40;63.20;;;;;;2037299;28;20005;-68
2022/05/05 02:03:15;;;;;;;;;;;16.40;63.20;;;;;;2037164;28;20279;-68
2022/05/05 02:04:13;;;;;;;;;;;16.40;63.30;;;;;;2037257;28;19961;-68
2022/05/05 02:05:13;;;;;;;;;;;16.40;63.40;;;;;;2037247;28;19953;-70
2022/05/05 02:06:13;;;;;;;;;;;16.40;63.50;;;;;;2037069;28;19911;-69
2022/05/05 02:07:11;;;;;;;;;;;16.40;63.50;;;;;;2037074;28;20346;-69
2022/05/05 02:08:10;;;;;;;;;;;16.40;63.60;;;;;;2037311;28;19968;-69
2022/05/05 02:09:09;;;;;;;;;;;16.40;63.90;;;;;;2037268;28;19911;-69
2022/05/05 02:10:08;;;;;;;;;;;16.40;63.90;;;;;;2037305;28;19904;-68
2022/05/05 02:11:06;;;;;;;;;;;16.40;64.00;;;;;;2037243;28;19908;-69
2022/05/05 02:12:05;;;;;;;;;;;16.40;64.00;;;;;;2037221;28;19907;-69
2022/05/05 02:13:04;;;;;;;;;;;16.40;64.00;;;;;;2037125;28;20377;-68
2022/05/05 02:14:03;;;;;;;;;;;16.40;64.30;;;;;;2037237;28;19904;-69
2022/05/05 02:15:03;;;;;;;;;;;16.50;65.00;;;;;;2037141;28;19929;-68
2022/05/05 02:16:02;;;;;;;;;;;;;;;;;;2037003;28;19908;-69
2022/05/05 02:17:00;;;;;;;;;;;16.40;74.20;;;;;;2037115;28;19904;-69
2022/05/05 02:18:05;;;;;;;;;;;16.40;70.50;;;;;;2037221;28;19904;-69
2022/05/05 02:19:03;;;;;;;;;;;16.40;71.50;;;;;;2037006;28;19953;-69
2022/05/05 02:20:03;;;;;;;;;;;16.40;72.40;;;;;;2037372;28;19925;-69
2022/05/05 02:21:01;;;;;;;;;;;16.40;73.10;;;;;;2037090;28;20351;-68
2022/05/05 02:22:02;;;;;;;;;;;16.40;74.40;;;;;;2037301;28;19927;-69
2022/05/05 02:23:00;;;;;;;;;;;16.40;77.30;;;;;;2037158;28;19966;-69
2022/05/05 02:23:59;;;;;;;;;;;16.40;80.60;;;;;;2037202;28;19911;-69
2022/05/05 02:24:57;;;;;;;;;;;16.40;81.20;;;;;;2037033;28;20267;-70
2022/05/05 02:25:56;;;;;;;;;;;16.40;81.50;;;;;;2037144;28;19904;-69
2022/05/05 02:26:55;;;;;;;;;;;16.40;81.40;;;;;;2037125;28;19907;-69
2022/05/05 02:27:53;;;;;;;;;;;16.40;85.30;;;;;;2037128;28;19912;-69
2022/05/05 02:28:52;;;;;;;;;;;16.40;83.70;;;;;;2037157;28;20005;-69
2022/05/05 02:29:51;;;;;;;;;;;16.40;76.20;;;;;;2037176;28;19904;-69
2022/05/05 02:30:49;;;;;;;;;;;16.40;74.50;;;;;;2036942;28;19904;-69
2022/05/05 02:31:48;;;;;;;;;;;16.40;76.00;;;;;;2037035;28;20378;-69
2022/05/05 02:32:47;;;;;;;;;;;16.40;77.10;;;;;;2037002;28;19904;-69
2022/05/05 02:33:45;;;;;;;;;;;16.40;68.70;;;;;;2037210;28;19996;-69
2022/05/05 02:34:44;;;;;;;;;;;16.40;71.50;;;;;;2037215;28;19983;-68
2022/05/05 02:35:43;;;;;;;;;;;16.40;71.30;;;;;;2037054;28;19905;-67
2022/05/05 02:39:17;;;;;;;;;;;16.30;71.80;;;;;;2037048;28;19986;-68
2022/05/05 02:40:15;;;;;;;;;;;16.40;72.50;;;;;;2037112;28;19939;-68
2022/05/05 02:41:14;;;;;;;;;;;16.40;74.80;;;;;;2037053;28;20347;-68
2022/05/05 02:42:12;;;;;;;;;;;16.40;76.90;;;;;;2036887;28;19904;-68
2022/05/05 02:43:11;;;;;;;;;;;16.40;77.30;;;;;;2036863;28;19929;-68
2022/05/05 02:44:09;;;;;;;;;;;16.40;71.30;;;;;;2036908;28;19961;-69
2022/05/05 02:45:08;;;;;;;;;;;16.40;71.50;;;;;;2036947;28;20279;-68
2022/05/05 02:46:06;;;;;;;;;;;16.40;71.80;;;;;;2037216;28;19904;-69
2022/05/05 02:47:05;;;;;;;;;;;16.40;71.50;;;;;;2036924;28;19951;-69
2022/05/05 02:48:04;;;;;;;;;;;16.40;71.80;;;;;;2036946;28;19915;-68
2022/05/05 02:49:02;;;;;;;;;;;16.40;71.30;;;;;;2044546;28;19907;-68
2022/05/05 02:50:01;;;;;;;;;;;16.40;71.40;;;;;;2044611;28;19911;-68
2022/05/05 02:51:00;;;;;;;;;;;16.40;71.20;;;;;;2037401;28;19984;-68
2022/05/05 02:51:58;;;;;;;;;;;16.40;71.60;;;;;;2037052;28;19910;-69
2022/05/05 02:52:56;;;;;;;;;;;16.40;71.20;;;;;;2037021;28;20065;-68
2022/05/05 02:55:18;;;;;;;;;;;16.30;71.30;;;;;;2014556;28;19978;-68
2022/05/05 02:56:16;;;;;;;;;;;16.30;71.20;;;;;;2034247;28;19968;-69
2022/05/05 02:57:15;;;;;;;;;;;16.40;70.90;;;;;;2036816;28;19944;-68
2022/05/05 02:58:13;;;;;;;;;;;16.40;70.60;;;;;;2036709;28;19908;-68
2022/05/05 02:59:12;;;;;;;;;;;16.40;70.70;;;;;;2036773;28;19904;-68
2022/05/05 03:00:11;;;;;;;;;;;16.40;70.70;;;;;;2036898;28;19907;-68
2022/05/05 03:01:09;;;;;;;;;;;16.30;70.60;;;;;;2036154;28;20413;-68
2022/05/05 03:02:08;;;;;;;;;;;16.40;70.80;;;;;;2036085;28;19961;-68
2022/05/05 03:03:06;;;;;;;;;;;16.30;70.80;;;;;;2043774;28;20266;-69
2022/05/05 03:04:05;;;;;;;;;;;16.30;70.70;;;;;;2037270;28;19904;-68
2022/05/05 03:05:03;;;;;;;;;;;16.30;71.00;;;;;;2036751;28;19926;-68
2022/05/05 03:06:02;;;;;;;;;;;16.30;70.90;;;;;;2036973;28;20045;-69
2022/05/05 03:07:00;;;;;;;;;;;16.30;71.20;;;;;;2035799;28;19911;-69
2022/05/05 03:07:59;;;;;;;;;;;16.40;71.40;;;;;;2035895;28;19916;-68
2022/05/05 03:08:57;;;;;;;;;;;16.30;71.80;;;;;;2036636;28;19934;-68
2022/05/05 03:09:56;;;;;;;;;;;16.30;72.10;;;;;;2036680;28;19911;-68
2022/05/05 03:10:54;;;;;;;;;;;16.30;72.80;;;;;;2036719;28;19911;-69
2022/05/05 03:11:53;;;;;;;;;;;16.30;72.60;;;;;;2036690;28;19915;-68
2022/05/05 03:12:51;;;;;;;;;;;16.40;73.60;;;;;;2036774;28;19957;-68
2022/05/05 03:13:49;;;;;;;;;;;16.30;74.50;;;;;;2036710;28;20208;-69
2022/05/05 03:14:48;;;;;;;;;;;16.30;74.50;;;;;;2036681;28;19923;-68
2022/05/05 03:15:46;;;;;;;;;;;16.30;74.20;;;;;;2036763;28;19904;-68
2022/05/05 03:16:45;;;;;;;;;;;16.30;74.40;;;;;;2036771;28;19904;-69
2022/05/05 03:17:43;;;;;;;;;;;16.30;74.20;;;;;;2036787;28;19951;-69
2022/05/05 03:18:42;;;;;;;;;;;16.40;74.50;;;;;;2036544;28;19911;-68
2022/05/05 03:19:41;;;;;;;;;;;16.30;74.80;;;;;;2036609;28;19998;-69
2022/05/05 03:20:40;;;;;;;;;;;16.30;73.70;;;;;;2036094;28;19911;-68
2022/05/05 03:21:38;;;;;;;;;;;16.30;64.90;;;;;;2028024;28;19915;-68
2022/05/05 03:22:36;;;;;;;;;;;16.20;64.60;;;;;;2035636;28;19904;-69
2022/05/05 03:23:35;;;;;;;;;;;16.30;64.90;;;;;;2036826;28;19904;-68
2022/05/05 03:24:33;;;;;;;;;;;16.30;64.80;;;;;;2036855;28;19908;-69
2022/05/05 03:25:32;;;;;;;;;;;16.30;64.90;;;;;;2036729;28;19904;-70
2022/05/05 03:26:30;;;;;;;;;;;16.30;64.90;;;;;;2036772;28;19953;-68
2022/05/05 03:27:29;;;;;;;;;;;16.30;65.00;;;;;;2037016;28;19903;-68
2022/05/05 03:28:27;;;;;;;;;;;16.30;64.90;;;;;;2036727;28;19904;-69
2022/05/05 03:29:26;;;;;;;;;;;16.30;65.00;;;;;;2036036;28;19904;-68
2022/05/05 03:30:24;;;;;;;;;;;16.30;65.00;;;;;;2036075;28;20342;-69
2022/05/05 03:31:23;;;;;;;;;;;16.30;65.10;;;;;;2036527;28;20310;-69
2022/05/05 03:32:21;;;;;;;;;;;16.30;65.20;;;;;;2036653;28;19915;-69
2022/05/05 03:33:20;;;;;;;;;;;16.30;65.10;;;;;;2036643;28;19965;-69
2022/05/05 03:34:18;;;;;;;;;;;16.30;65.10;;;;;;2036815;28;19943;-69
2022/05/05 03:35:17;;;;;;;;;;;16.30;65.00;;;;;;2036749;28;20366;-69
2022/05/05 03:36:15;;;;;;;;;;;16.30;65.00;;;;;;2036587;28;20008;-69
2022/05/05 03:37:14;;;;;;;;;;;16.30;65.10;;;;;;2036744;28;20102;-68
2022/05/05 03:38:13;;;;;;;;;;;16.30;65.20;;;;;;2036620;28;20004;-68
2022/05/05 03:39:11;;;;;;;;;;;16.30;65.20;;;;;;2036606;28;19904;-69
2022/05/05 03:40:10;;;;;;;;;;;16.30;65.40;;;;;;2036676;28;19991;-69
2022/05/05 03:41:09;;;;;;;;;;;16.30;65.90;;;;;;2036621;28;19904;-69
2022/05/05 03:42:07;;;;;;;;;;;16.30;65.80;;;;;;2036785;28;19904;-68
2022/05/05 03:43:12;;;;;;;;;;;16.30;65.70;;;;;;2036736;28;19969;-68
2022/05/05 03:44:10;;;;;;;;;;;16.30;67.00;;;;;;2036692;28;19912;-69
2022/05/05 03:45:09;;;;;;;;;;;16.30;67.20;;;;;;2036788;28;19904;-68
2022/05/05 03:46:07;;;;;;;;;;;16.30;68.30;;;;;;2036604;28;20003;-68
2022/05/05 03:47:06;;;;;;;;;;;16.30;69.70;;;;;;2036480;28;20315;-68
2022/05/05 03:48:07;;;;;;;;;;;16.30;74.80;;;;;;2036770;28;19930;-69
2022/05/05 03:49:05;;;;;;;;;;;16.30;74.50;;;;;;2036671;28;19904;-68
2022/05/05 03:50:04;;;;;;;;;;;16.30;74.50;;;;;;2036676;28;20002;-68
2022/05/05 03:51:03;;;;;;;;;;;16.20;74.40;;;;;;2038008;28;19933;-68
2022/05/05 03:52:01;;;;;;;;;;;16.30;66.20;;;;;;2038152;28;20388;-68
2022/05/05 03:52:59;;;;;;;;;;;16.30;64.70;;;;;;2038136;28;19904;-68
2022/05/05 03:53:58;;;;;;;;;;;16.30;64.60;;;;;;2038108;28;19904;-68
2022/05/05 03:54:56;;;;;;;;;;;16.30;64.60;;;;;;2038057;28;19904;-68
2022/05/05 03:55:55;;;;;;;;;;;16.30;64.60;;;;;;2038009;28;20003;-68
2022/05/05 03:56:53;;;;;;;;;;;16.30;64.60;;;;;;2038021;28;20355;-69
2022/05/05 03:57:51;;;;;;;;;;;16.30;64.80;;;;;;2038252;28;19904;-68
2022/05/05 03:58:50;;;;;;;;;;;16.30;64.90;;;;;;2038163;28;19911;-69
2022/05/05 03:59:48;;;;;;;;;;;16.30;65.00;;;;;;2038324;28;19940;-68
2022/05/05 04:00:47;;;;;;;;;;;16.30;65.10;;;;;;2038314;28;19907;-68
2022/05/05 04:01:45;;;;;;;;;;;16.30;65.20;;;;;;2038255;28;19904;-68
2022/05/05 04:02:44;;;;;;;;;;;16.30;65.20;;;;;;2038380;28;19911;-68
2022/05/05 04:04:02;;;;;;;;;;;16.30;65.70;;;;;;2038092;28;19944;-68
2022/05/05 04:05:01;;;;;;;;;;;16.30;65.90;;;;;;2038367;28;20370;-68
2022/05/05 04:06:03;;;;;;;;;;;16.30;66.00;;;;;;2038087;28;20334;-68
2022/05/05 04:07:02;;;;;;;;;;;16.30;66.30;;;;;;2037785;28;19904;-68
2022/05/05 04:08:01;;;;;;;;;;;16.30;66.30;;;;;;2037951;28;19904;-68
2022/05/05 04:09:00;;;;;;;;;;;16.30;66.60;;;;;;2038135;28;19929;-68
2022/05/05 04:09:58;;;;;;;;;;;16.30;66.60;;;;;;2038307;28;19904;-69
2022/05/05 04:10:57;;;;;;;;;;;16.30;67.30;;;;;;2045743;28;19957;-68
2022/05/05 04:11:55;;;;;;;;;;;16.30;67.50;;;;;;2045980;28;19911;-69
2022/05/05 04:12:54;;;;;;;;;;;16.30;67.70;;;;;;2039022;28;19915;-68
2022/05/05 04:13:52;;;;;;;;;;;16.30;68.00;;;;;;2038488;28;20224;-68
2022/05/05 04:14:51;;;;;;;;;;;16.30;68.10;;;;;;2038278;28;19927;-68
2022/05/05 04:15:49;;;;;;;;;;;16.30;68.10;;;;;;2038335;28;19904;-68
2022/05/05 04:16:48;;;;;;;;;;;16.30;68.10;;;;;;2038454;28;20036;-69
2022/05/05 04:17:46;;;;;;;;;;;16.30;68.50;;;;;;2038114;28;19904;-69
2022/05/05 04:18:45;;;;;;;;;;;16.30;68.40;;;;;;2038338;28;19908;-68
2022/05/05 04:19:43;;;;;;;;;;;16.30;68.40;;;;;;2038788;28;20003;-69
2022/05/05 04:20:42;;;;;;;;;;;16.30;68.50;;;;;;2038253;28;20002;-68
2022/05/05 04:21:40;;;;;;;;;;;16.30;68.90;;;;;;2038794;28;20267;-68
2022/05/05 04:22:41;;;;;;;;;;;16.30;68.80;;;;;;2038700;28;19986;-68
2022/05/05 04:23:40;;;;;;;;;;;16.30;69.50;;;;;;2038947;28;19904;-68
2022/05/05 04:24:39;;;;;;;;;;;16.30;68.70;;;;;;2038242;28;19953;-68
2022/05/05 04:25:39;;;;;;;;;;;16.30;68.70;;;;;;2038556;28;19990;-68
2022/05/05 04:26:38;;;;;;;;;;;16.30;68.80;;;;;;2038021;28;20010;-68
2022/05/05 04:27:39;;;;;;;;;;;16.30;69.10;;;;;;2038274;28;20262;-68
2022/05/05 04:28:39;;;;;;;;;;;16.30;70.00;;;;;;2038211;28;19904;-68
2022/05/05 04:29:37;;;;;;;;;;;16.30;71.00;;;;;;2038141;28;20012;-68
2022/05/05 04:30:36;;;;;;;;;;;16.30;71.40;;;;;;2038285;28;19904;-68
2022/05/05 04:31:34;;;;;;;;;;;16.30;71.30;;;;;;2038376;28;19904;-67
2022/05/05 04:32:33;;;;;;;;;;;16.30;72.10;;;;;;2037584;28;20398;-68
2022/05/05 04:33:31;;;;;;;;;;;16.30;76.10;;;;;;2037762;28;19947;-68
2022/05/05 04:34:31;;;;;;;;;;;16.30;76.70;;;;;;2038541;28;19943;-68
2022/05/05 04:35:30;;;;;;;;;;;16.30;77.00;;;;;;2038434;28;20343;-67
2022/05/05 04:36:34;;;;;;;;;;;16.30;76.80;;;;;;2038250;28;19908;-68
2022/05/05 04:37:33;;;;;;;;;;;16.30;76.50;;;;;;2038844;28;19900;-68
2022/05/05 04:38:31;;;;;;;;;;;16.30;75.60;;;;;;2038293;28;19911;-69
2022/05/05 04:39:29;;;;;;;;;;;16.30;75.60;;;;;;2038941;28;19926;-68
2022/05/05 04:40:29;;;;;;;;;;;16.20;75.70;;;;;;2039246;28;19942;-68
2022/05/05 04:41:27;;;;;;;;;;;16.30;76.20;;;;;;2039534;28;19911;-69
2022/05/05 04:42:25;;;;;;;;;;;16.30;76.90;;;;;;2039225;28;19904;-69
2022/05/05 04:43:24;;;;;;;;;;;16.30;78.60;;;;;;2039098;28;19904;-69
2022/05/05 04:44:23;;;;;;;;;;;16.30;72.80;;;;;;2040379;28;19904;-68
2022/05/05 04:45:23;;;;;;;;;;;16.30;70.30;;;;;;2040164;28;19971;-68
2022/05/05 04:46:22;;;;;;;;;;;16.30;70.90;;;;;;2040529;28;19904;-68
2022/05/05 04:47:20;;;;;;;;;;;16.30;70.20;;;;;;2040896;28;19969;-68
2022/05/05 04:48:19;;;;;;;;;;;16.30;70.60;;;;;;2040793;28;20359;-68
2022/05/05 04:49:17;;;;;;;;;;;16.30;70.40;;;;;;2040866;28;19943;-68
2022/05/05 04:50:16;;;;;;;;;;;16.30;70.50;;;;;;2040061;28;19911;-68
2022/05/05 04:51:15;;;;;;;;;;;16.30;71.00;;;;;;2041895;28;19904;-69
2022/05/05 04:52:15;;;;;;;;;;;16.30;72.30;;;;;;2043537;28;19934;-68
2022/05/05 04:53:13;;;;;;;;;;;16.30;72.40;;;;;;2043967;28;19915;-69
2022/05/05 04:54:12;;;;;;;;;;;16.30;74.00;;;;;;2044121;28;19954;-69
2022/05/05 04:55:11;;;;;;;;;;;16.30;73.00;;;;;;2046180;28;19971;-69
2022/05/05 04:56:10;;;;;;;;;;;16.30;72.50;;;;;;2046576;28;19896;-70
2022/05/05 04:57:08;;;;;;;;;;;16.40;71.00;;;;;;2051952;28;19908;-70
2022/05/05 04:58:07;;;;;;;;;;;16.30;72.40;;;;;;2053079;28;19898;-69
2022/05/05 04:59:05;;;;;;;;;;;16.30;71.70;;;;;;2047588;28;19979;-69
2022/05/05 05:00:05;;;;;;;;;;;16.30;72.30;;;;;;2047075;28;19892;-69
2022/05/05 05:01:03;;;;;;;;;;;16.30;73.50;;;;;;2047061;28;19961;-69
2022/05/05 05:02:02;;;;;;;;;;;16.30;72.80;;;;;;2046458;28;20012;-68
2022/05/05 05:03:00;;;;;;;;;;;16.30;73.40;;;;;;2046908;28;19927;-69
2022/05/05 05:03:59;;;;;;;;;;;16.30;74.00;;;;;;2047059;28;19892;-67
2022/05/05 05:04:57;;;;;;;;;;;16.30;74.40;;;;;;2046634;28;19896;-67
2022/05/05 05:05:56;;;;;;;;;;;16.30;75.40;;;;;;2041885;28;19915;-67
2022/05/05 05:06:55;;;;;;;;;;;16.30;74.60;;;;;;2045943;28;19934;-68
2022/05/05 05:07:53;;;;;;;;;;;16.40;66.50;;;;;;2046336;28;19906;-69
2022/05/05 05:08:53;;;;;;;;;;;16.30;67.00;;;;;;2046893;28;19900;-68
2022/05/05 05:09:51;;;;;;;;;;;16.30;67.30;;;;;;2046957;28;19955;-67
2022/05/05 05:10:50;;;;;;;;;;;16.40;67.30;;;;;;2046852;28;20340;-69
2022/05/05 05:11:48;;;;;;;;;;;16.30;67.70;;;;;;2046024;28;19962;-67
2022/05/05 05:12:47;;;;;;;;;;;16.40;68.30;;;;;;2045976;28;19915;-65
2022/05/05 05:13:46;;;;;;;;;;;16.30;68.20;;;;;;2044728;28;19926;-67
2022/05/05 05:14:44;;;;;;;;;;;16.40;68.50;;;;;;2042042;28;19907;-67
2022/05/05 05:15:43;;;;;;;;;;;16.40;68.50;;;;;;2044819;28;19904;-69
2022/05/05 05:16:41;;;;;;;;;;;16.40;69.50;;;;;;2044960;28;19931;-66
2022/05/05 05:17:39;;;;;;;;;;;16.40;70.70;;;;;;2045450;28;19910;-68
2022/05/05 05:18:38;;;;;;;;;;;16.40;73.40;;;;;;2046625;28;19914;-67
2022/05/05 05:19:37;;;;;;;;;;;16.40;71.80;;;;;;2046525;28;19904;-69
2022/05/05 05:20:37;;;;;;;;;;;16.30;68.20;;;;;;2046120;28;19980;-68
2022/05/05 05:21:36;;;;;;;;;;;16.40;69.60;;;;;;2045484;28;19957;-67
2022/05/05 05:22:35;;;;;;;;;;;16.40;69.80;;;;;;2046235;28;19968;-68
2022/05/05 05:23:33;;;;;;;;;;;16.40;70.10;;;;;;2045865;28;19919;-68
2022/05/05 05:24:32;;;;;;;;;;;16.40;70.50;;;;;;2046837;28;20077;-67
2022/05/05 05:25:30;;;;;;;;;;;16.40;70.70;;;;;;2046718;28;19914;-68
2022/05/05 05:26:30;;;;;;;;;;;16.40;66.50;;;;;;2046760;28;19902;-68
2022/05/05 05:27:29;;;;;;;;;;;16.40;67.90;;;;;;2046991;28;19904;-68
2022/05/05 05:28:28;;;;;;;;;;;16.40;69.00;;;;;;2046970;28;19892;-68
2022/05/05 05:29:26;;;;;;;;;;;16.40;67.10;;;;;;2046804;28;20307;-68
2022/05/05 05:30:25;;;;;;;;;;;16.40;68.50;;;;;;2046499;28;19915;-67
2022/05/05 05:31:23;;;;;;;;;;;16.40;69.20;;;;;;2045783;28;19908;-67
2022/05/05 05:32:22;;;;;;;;;;;16.40;68.80;;;;;;2046559;28;19899;-69
2022/05/05 05:33:21;;;;;;;;;;;16.40;68.20;;;;;;2046047;28;19904;-68
2022/05/05 05:34:21;;;;;;;;;;;16.40;70.30;;;;;;2044762;28;19980;-69
2022/05/05 05:35:19;;;;;;;;;;;16.40;69.00;;;;;;2045345;28;19904;-69
2022/05/05 05:36:18;;;;;;;;;;;16.40;69.00;;;;;;2043107;28;19908;-65
2022/05/05 05:37:17;;;;;;;;;;;16.40;69.00;;;;;;2046195;28;19951;-68
2022/05/05 05:38:20;;;;;;;;;;;16.40;68.40;;;;;;2047022;28;19920;-68
2022/05/05 05:39:21;;;;;;;;;;;16.50;70.10;;;;;;2046611;28;19970;-67
2022/05/05 05:40:19;;;;;;;;;;;16.40;70.50;;;;;;2046804;28;19927;-69
2022/05/05 05:41:18;;;;;;;;;;;16.50;70.40;;;;;;2046947;28;19908;-68
2022/05/05 05:42:17;;;;;;;;;;;16.50;70.10;;;;;;2054174;28;19907;-67
2022/05/05 05:43:19;;;;;;;;;;;16.60;71.20;;;;;;2053175;28;19927;-69
2022/05/05 05:44:17;;;;;;;;;;;16.60;72.90;;;;;;2041100;28;19904;-67
2022/05/05 05:45:16;;;;;;;;;;;16.60;70.80;;;;;;2042558;28;19989;-68
2022/05/05 05:46:14;;;;;;;;;;;16.40;71.10;;;;;;2044279;28;19912;-69
2022/05/05 05:47:13;;;;;;;;;;;16.50;70.60;;;;;;2038529;28;19904;-69
2022/05/05 05:48:11;;;;;;;;;;;16.50;71.70;;;;;;2038642;28;20037;-69
2022/05/05 05:49:11;;;;;;;;;;;16.50;72.00;;;;;;2038737;28;19939;-69
2022/05/05 05:50:10;;;;;;;;;;;16.50;73.60;;;;;;2046897;28;19908;-69
2022/05/05 05:51:08;;;;;;;;;;;16.50;73.80;;;;;;2046213;28;19911;-68
2022/05/05 05:52:07;;;;;;;;;;;16.60;72.30;;;;;;2039295;28;19927;-69
2022/05/05 05:53:07;;;;;;;;;;;16.60;72.70;;;;;;2039351;28;19914;-68
2022/05/05 05:54:05;;;;;;;;;;;16.60;74.70;;;;;;2038071;28;19904;-68
2022/05/05 05:55:04;;;;;;;;;;;16.50;72.00;;;;;;2036867;28;20470;-68
2022/05/05 05:56:03;;;;;;;;;;;16.60;73.70;;;;;;2037248;28;20312;-68